createdAt,value
2022-07-26T00:00:00.359Z,9.17
2022-07-26T00:02:27.207Z,8.33
2022-07-26T00:04:53.779Z,8.40
2022-07-26T00:07:20.304Z,8.47
2022-07-26T00:09:48.476Z,8.97
2022-07-26T00:12:15.496Z,8.63
2022-07-26T00:14:43.365Z,8.37
2022-07-26T00:17:10.086Z,8.37
2022-07-26T00:19:36.695Z,8.13
2022-07-26T00:22:21.951Z,7.83
2022-07-26T00:24:48.486Z,8.03
2022-07-26T00:27:15.046Z,8.17
2022-07-26T00:29:41.595Z,8.17
2022-07-26T00:32:08.111Z,7.17
2022-07-26T00:34:34.760Z,8.40
2022-07-26T00:37:01.344Z,7.10
2022-07-26T00:39:28.925Z,7.70
2022-07-26T00:41:55.667Z,7.90
2022-07-26T00:44:22.223Z,8.27
2022-07-26T00:46:48.840Z,7.83
2022-07-26T00:49:15.446Z,7.70
2022-07-26T00:51:42.251Z,7.17
2022-07-26T00:54:13.171Z,7.60
2022-07-26T00:56:40.029Z,7.37
2022-07-26T00:59:06.898Z,7.10
2022-07-26T01:01:33.776Z,7.10
2022-07-26T01:04:00.509Z,6.77
2022-07-26T01:06:27.601Z,6.63
2022-07-26T01:08:54.473Z,6.83
2022-07-26T01:11:21.083Z,6.53
2022-07-26T01:13:48.633Z,6.40
2022-07-26T01:16:15.406Z,6.97
2022-07-26T01:18:42.202Z,8.03
2022-07-26T01:21:13.809Z,7.37
2022-07-26T01:23:41.255Z,7.30
2022-07-26T01:26:07.859Z,7.43
2022-07-26T01:28:38.699Z,7.10
2022-07-26T01:31:06.052Z,6.70
2022-07-26T01:33:33.239Z,6.37
2022-07-26T01:35:59.876Z,6.87
2022-07-26T01:38:26.584Z,7.03
2022-07-26T01:40:53.593Z,6.87
2022-07-26T01:43:20.121Z,6.80
2022-07-26T01:45:46.906Z,6.93
2022-07-26T01:48:13.543Z,6.73
2022-07-26T01:50:40.019Z,6.40
2022-07-26T01:53:06.660Z,6.13
2022-07-26T01:55:33.283Z,7.03
2022-07-26T01:58:00.532Z,6.37
2022-07-26T02:00:27.143Z,6.77
2022-07-26T02:02:53.758Z,6.47
2022-07-26T02:05:20.386Z,6.80
2022-07-26T02:07:46.879Z,7.13
2022-07-26T02:10:13.955Z,6.50
2022-07-26T02:12:41.253Z,5.93
2022-07-26T02:15:08.955Z,6.13
2022-07-26T02:17:35.477Z,6.07
2022-07-26T02:20:02.393Z,6.20
2022-07-26T02:22:28.894Z,6.20
2022-07-26T02:24:55.501Z,6.07
2022-07-26T02:27:22.052Z,6.37
2022-07-26T02:29:48.613Z,6.00
2022-07-26T02:32:15.115Z,6.17
2022-07-26T02:34:41.603Z,5.70
2022-07-26T02:37:08.260Z,5.63
2022-07-26T02:39:34.733Z,6.60
2022-07-26T02:42:02.197Z,6.23
2022-07-26T02:44:28.936Z,6.07
2022-07-26T02:46:55.559Z,5.67
2022-07-26T02:49:22.069Z,6.50
2022-07-26T02:51:48.625Z,6.13
2022-07-26T02:54:15.196Z,5.70
2022-07-26T02:56:41.687Z,6.27
2022-07-26T02:59:08.808Z,6.30
2022-07-26T03:01:35.509Z,6.40
2022-07-26T03:04:02.738Z,6.37
2022-07-26T03:06:29.225Z,6.17
2022-07-26T03:08:55.664Z,6.53
2022-07-26T03:11:22.176Z,6.10
2022-07-26T03:13:48.665Z,5.90
2022-07-26T03:16:17.948Z,6.70
2022-07-26T03:18:48.493Z,6.27
2022-07-26T03:21:14.974Z,6.37
2022-07-26T03:23:41.464Z,6.50
2022-07-26T03:26:08.769Z,6.47
2022-07-26T03:28:35.723Z,6.67
2022-07-26T03:31:02.756Z,6.17
2022-07-26T03:33:29.842Z,6.50
2022-07-26T03:35:56.378Z,6.03
2022-07-26T03:38:22.857Z,7.00
2022-07-26T03:40:49.360Z,6.50
2022-07-26T03:43:16.744Z,6.73
2022-07-26T03:45:45.590Z,6.77
2022-07-26T03:48:12.124Z,6.33
2022-07-26T03:50:39.510Z,6.23
2022-07-26T03:53:06.042Z,6.20
2022-07-26T03:55:51.344Z,5.93
2022-07-26T03:58:32.978Z,6.47
2022-07-26T04:00:59.492Z,6.93
2022-07-26T04:03:26.068Z,6.23
2022-07-26T04:05:52.798Z,7.13
2022-07-26T04:08:19.475Z,6.40
2022-07-26T04:10:51.381Z,6.57
2022-07-26T04:13:18.455Z,6.03
2022-07-26T04:15:45.017Z,6.00
2022-07-26T04:18:11.561Z,6.73
2022-07-26T04:20:38.070Z,6.10
2022-07-26T04:23:04.580Z,6.40
2022-07-26T04:25:38.711Z,5.97
2022-07-26T04:28:08.086Z,6.17
2022-07-26T04:30:34.632Z,5.87
2022-07-26T04:33:01.180Z,5.87
2022-07-26T04:35:28.191Z,6.27
2022-07-26T04:37:54.736Z,6.13
2022-07-26T04:40:22.090Z,6.20
2022-07-26T04:42:50.585Z,6.40
2022-07-26T04:45:17.160Z,5.70
2022-07-26T04:47:49.644Z,5.90
2022-07-26T04:50:16.330Z,5.70
2022-07-26T04:52:42.812Z,5.87
2022-07-26T04:55:09.965Z,5.80
2022-07-26T04:57:36.675Z,5.70
2022-07-26T05:00:23.753Z,6.10
2022-07-26T05:02:52.538Z,6.40
2022-07-26T05:05:19.130Z,5.93
2022-07-26T05:07:47.986Z,5.50
2022-07-26T05:10:15.666Z,5.80
2022-07-26T05:12:42.239Z,5.83
2022-07-26T05:15:13.609Z,5.40
2022-07-26T05:17:41.626Z,5.50
2022-07-26T05:20:08.643Z,5.90
2022-07-26T05:22:35.514Z,5.20
2022-07-26T05:25:02.092Z,5.87
2022-07-26T05:27:28.574Z,5.30
2022-07-26T05:29:55.934Z,5.20
2022-07-26T05:32:23.027Z,5.37
2022-07-26T05:34:49.545Z,5.30
2022-07-26T05:37:16.463Z,5.63
2022-07-26T05:39:43.030Z,5.60
2022-07-26T05:42:09.567Z,5.77
2022-07-26T05:44:36.041Z,5.40
2022-07-26T05:47:09.064Z,5.50
2022-07-26T05:49:40.412Z,5.53
2022-07-26T05:52:07.799Z,5.60
2022-07-26T05:54:34.294Z,5.67
2022-07-26T05:57:00.821Z,5.57
2022-07-26T05:59:27.323Z,5.27
2022-07-26T06:01:56.534Z,5.33
2022-07-26T06:04:25.972Z,5.80
2022-07-26T06:06:54.671Z,5.70
2022-07-26T06:09:21.697Z,6.63
2022-07-26T06:11:48.163Z,5.47
2022-07-26T06:14:14.951Z,5.93
2022-07-26T06:16:41.722Z,5.97
2022-07-26T06:19:08.231Z,7.07
2022-07-26T06:21:34.774Z,7.50
2022-07-26T06:24:01.309Z,7.20
2022-07-26T06:26:27.779Z,6.67
2022-07-26T06:28:54.293Z,6.53
2022-07-26T06:31:20.904Z,7.83
2022-07-26T06:33:47.630Z,8.47
2022-07-26T06:36:14.245Z,8.90
2022-07-26T06:38:40.922Z,8.83
2022-07-26T06:41:07.454Z,10.33
2022-07-26T06:43:34.049Z,11.07
2022-07-26T06:46:00.627Z,12.33
2022-07-26T06:48:27.236Z,11.43
2022-07-26T06:50:55.648Z,11.87
2022-07-26T06:53:22.180Z,12.00
2022-07-26T06:55:48.835Z,14.93
2022-07-26T06:58:15.362Z,13.97
2022-07-26T07:00:41.998Z,13.93
2022-07-26T07:03:08.645Z,15.07
2022-07-26T07:05:35.191Z,14.57
2022-07-26T07:08:01.725Z,16.40
2022-07-26T07:10:28.845Z,15.20
2022-07-26T07:12:56.120Z,15.80
2022-07-26T07:15:22.611Z,14.17
2022-07-26T07:17:49.677Z,13.80
2022-07-26T07:20:16.143Z,11.60
2022-07-26T07:22:42.662Z,10.87
2022-07-26T07:25:09.197Z,11.63
2022-07-26T07:27:35.763Z,10.73
2022-07-26T07:30:02.507Z,11.13
2022-07-26T07:32:30.860Z,10.87
2022-07-26T07:34:57.474Z,10.00
2022-07-26T07:37:24.033Z,9.27
2022-07-26T07:39:51.368Z,8.27
2022-07-26T07:42:18.596Z,7.20
2022-07-26T07:44:45.142Z,7.70
2022-07-26T07:47:12.030Z,8.07
2022-07-26T07:49:38.737Z,6.83
2022-07-26T07:52:05.496Z,6.77
2022-07-26T07:54:32.074Z,6.17
2022-07-26T07:56:58.866Z,5.57
2022-07-26T07:59:25.723Z,5.00
2022-07-26T08:01:52.351Z,4.37
2022-07-26T08:04:19.063Z,4.20
2022-07-26T08:06:50.462Z,3.40
2022-07-26T08:09:17.972Z,3.30
2022-07-26T08:11:44.522Z,3.10
2022-07-26T08:14:11.041Z,2.90
2022-07-26T08:16:37.659Z,3.03
2022-07-26T08:19:04.541Z,3.30
2022-07-26T08:21:31.095Z,3.10
2022-07-26T08:23:57.851Z,2.90
2022-07-26T08:26:24.543Z,3.07
2022-07-26T08:28:59.505Z,2.90
2022-07-26T08:31:27.395Z,2.93
2022-07-26T08:33:54.025Z,3.00
2022-07-26T08:36:20.498Z,3.73
2022-07-26T08:38:47.778Z,3.75
2022-07-26T08:41:15.113Z,4.37
2022-07-26T08:43:52.102Z,4.40
2022-07-26T08:46:28.209Z,3.60
2022-07-26T08:48:55.516Z,4.63
2022-07-26T08:51:23.644Z,5.50
2022-07-26T08:53:51.911Z,5.03
2022-07-26T08:56:18.405Z,4.63
2022-07-26T08:58:45.697Z,5.63
2022-07-26T09:01:13.041Z,5.30
2022-07-26T09:03:40.203Z,5.50
2022-07-26T09:06:12.664Z,5.93
2022-07-26T09:08:39.254Z,5.37
2022-07-26T09:11:24.108Z,5.63
2022-07-26T09:13:51.728Z,5.50
2022-07-26T09:16:19.143Z,5.33
2022-07-26T09:18:45.881Z,6.13
2022-07-26T09:21:32.230Z,6.47
2022-07-26T09:23:59.057Z,6.23
2022-07-26T09:26:26.109Z,5.70
2022-07-26T09:29:07.351Z,5.97
2022-07-26T09:31:34.534Z,6.83
2022-07-26T09:34:01.127Z,5.03
2022-07-26T09:36:28.000Z,5.17
2022-07-26T09:38:55.918Z,5.10
2022-07-26T09:41:27.970Z,4.80
2022-07-26T09:44:01.588Z,4.67
2022-07-26T09:46:29.821Z,3.80
2022-07-26T09:49:12.638Z,4.17
2022-07-26T09:51:40.807Z,4.63
2022-07-26T09:54:08.874Z,4.80
2022-07-26T09:56:45.676Z,4.47
2022-07-26T09:59:16.024Z,4.27
2022-07-26T10:01:43.150Z,4.10
2022-07-26T10:04:10.122Z,4.27
2022-07-26T10:06:36.920Z,3.70
2022-07-26T10:09:04.220Z,3.80
2022-07-26T10:11:35.587Z,3.73
2022-07-26T10:14:22.024Z,3.43
2022-07-26T10:16:48.506Z,3.80
2022-07-26T10:19:40.990Z,3.50
2022-07-26T10:22:23.562Z,3.63
2022-07-26T10:24:54.415Z,3.80
2022-07-26T10:27:57.688Z,3.57
2022-07-26T10:30:31.540Z,3.47
2022-07-26T10:33:00.997Z,3.30
2022-07-26T10:35:36.580Z,3.47
2022-07-26T10:38:13.109Z,2.90
2022-07-26T10:40:55.147Z,2.60
2022-07-26T10:46:20.510Z,2.97
2022-07-26T10:48:56.591Z,2.20
2022-07-26T10:51:41.093Z,2.50
2022-07-26T10:54:09.349Z,2.57
2022-07-26T10:56:36.845Z,2.63
2022-07-26T10:59:04.248Z,2.83
2022-07-26T11:01:33.902Z,2.27
2022-07-26T11:04:00.485Z,2.17
2022-07-26T11:06:28.518Z,2.37
2022-07-26T11:08:55.978Z,2.27
2022-07-26T11:11:33.279Z,2.00
2022-07-26T11:14:07.255Z,1.80
2022-07-26T11:16:37.159Z,2.30
2022-07-26T11:19:12.080Z,2.17
2022-07-26T11:21:39.086Z,2.27
2022-07-26T11:24:05.802Z,2.20
2022-07-26T11:26:40.139Z,1.83
2022-07-26T11:29:06.986Z,2.17
2022-07-26T11:31:50.864Z,2.10
2022-07-26T11:34:27.532Z,2.03
2022-07-26T11:36:55.395Z,2.00
2022-07-26T11:39:22.906Z,1.53
2022-07-26T11:41:49.952Z,1.70
2022-07-26T11:44:17.600Z,1.33
2022-07-26T11:46:53.189Z,1.40
2022-07-26T11:49:19.786Z,1.50
2022-07-26T11:51:50.894Z,1.40
2022-07-26T11:54:17.380Z,1.13
2022-07-26T11:56:53.097Z,1.23
2022-07-26T11:59:19.967Z,1.20
2022-07-26T12:01:48.854Z,1.20
2022-07-26T12:04:26.815Z,1.40
2022-07-26T12:06:54.566Z,1.20
2022-07-26T12:09:40.424Z,1.23
2022-07-26T12:12:08.724Z,1.23
2022-07-26T12:14:36.770Z,1.30
2022-07-26T12:17:13.503Z,1.00
2022-07-26T12:19:40.040Z,1.23
2022-07-26T12:22:12.198Z,1.03
2022-07-26T12:24:45.711Z,1.10
2022-07-26T12:27:16.718Z,1.10
2022-07-26T12:29:44.559Z,0.90
2022-07-26T12:32:12.884Z,0.90
2022-07-26T12:34:40.398Z,0.90
2022-07-26T12:37:39.575Z,1.20
2022-07-26T12:40:11.514Z,0.90
2022-07-26T12:42:38.810Z,0.90
2022-07-26T12:45:09.302Z,0.90
2022-07-26T12:47:36.655Z,1.00
2022-07-26T12:50:06.893Z,1.20
2022-07-26T12:52:36.411Z,1.10
2022-07-26T12:55:03.862Z,1.20
2022-07-26T12:57:30.859Z,1.10
2022-07-26T12:59:57.705Z,1.00
2022-07-26T13:02:24.769Z,0.80
2022-07-26T13:04:54.344Z,0.93
2022-07-26T13:07:23.486Z,0.80
2022-07-26T13:10:03.008Z,0.83
2022-07-26T13:12:36.889Z,1.07
2022-07-26T13:15:04.093Z,1.10
2022-07-26T13:17:30.760Z,1.20
2022-07-26T13:19:57.238Z,1.07
2022-07-26T13:22:23.746Z,1.30
2022-07-26T13:24:50.460Z,1.10
2022-07-26T13:27:16.974Z,1.10
2022-07-26T13:29:43.487Z,0.93
2022-07-26T13:32:09.992Z,1.40
2022-07-26T13:34:36.469Z,1.10
2022-07-26T13:37:08.310Z,1.03
2022-07-26T13:39:35.246Z,1.00
2022-07-26T13:42:01.719Z,1.03
2022-07-26T13:44:28.285Z,1.07
2022-07-26T13:46:54.819Z,0.90
2022-07-26T13:49:21.418Z,1.00
2022-07-26T13:51:57.220Z,1.07
2022-07-26T13:54:25.276Z,1.00
2022-07-26T13:56:51.842Z,0.90
2022-07-26T13:59:18.498Z,1.00
2022-07-26T14:01:45.483Z,1.00
2022-07-26T14:04:13.494Z,1.07
2022-07-26T14:06:40.393Z,0.93
2022-07-26T14:09:10.597Z,1.17
2022-07-26T14:11:37.937Z,0.90
2022-07-26T14:14:04.615Z,1.00
2022-07-26T14:16:31.307Z,1.00
2022-07-26T14:18:58.543Z,0.90
2022-07-26T14:21:25.678Z,0.70
2022-07-26T14:23:52.741Z,1.07
2022-07-26T14:26:19.300Z,1.00
2022-07-26T14:28:46.261Z,1.00
2022-07-26T14:31:12.978Z,0.90
2022-07-26T14:33:39.549Z,1.03
2022-07-26T14:36:06.180Z,1.00
2022-07-26T14:38:32.768Z,1.20
2022-07-26T14:41:01.092Z,1.50
2022-07-26T14:43:27.927Z,1.80
2022-07-26T14:45:54.480Z,1.90
2022-07-26T14:48:44.219Z,1.83
2022-07-26T14:51:09.550Z,1.70
2022-07-26T14:53:36.518Z,1.73
2022-07-26T14:56:03.094Z,1.80
2022-07-26T14:58:29.650Z,2.30
2022-07-26T15:00:57.418Z,2.03
2022-07-26T15:03:24.044Z,2.17
2022-07-26T15:05:50.619Z,2.00
2022-07-26T15:08:17.133Z,1.80
2022-07-26T15:10:43.677Z,1.47
2022-07-26T15:13:10.316Z,1.70
2022-07-26T15:15:36.790Z,1.70
2022-07-26T15:18:03.413Z,1.67
2022-07-26T15:20:29.948Z,1.30
2022-07-26T15:22:56.483Z,1.50
2022-07-26T15:25:23.589Z,1.43
2022-07-26T15:27:50.425Z,1.90
2022-07-26T15:30:17.429Z,1.73
2022-07-26T15:32:45.398Z,1.50
2022-07-26T15:35:14.871Z,1.87
2022-07-26T15:37:43.637Z,1.30
2022-07-26T15:40:10.720Z,1.53
2022-07-26T15:42:42.213Z,1.20
2022-07-26T15:45:10.930Z,1.20
2022-07-26T15:48:01.087Z,1.10
2022-07-26T15:50:26.464Z,1.30
2022-07-26T15:52:53.051Z,1.50
2022-07-26T15:55:19.946Z,1.30
2022-07-26T15:57:46.863Z,1.20
2022-07-26T16:00:14.133Z,1.43
2022-07-26T16:02:40.785Z,1.40
2022-07-26T16:05:08.168Z,1.53
2022-07-26T16:07:34.683Z,1.53
2022-07-26T16:10:01.779Z,1.43
2022-07-26T16:12:28.892Z,1.43
2022-07-26T16:14:55.544Z,1.50
2022-07-26T16:17:22.046Z,1.47
2022-07-26T16:19:48.798Z,1.30
2022-07-26T16:22:16.443Z,1.47
2022-07-26T16:24:43.262Z,1.37
2022-07-26T16:27:09.731Z,1.37
2022-07-26T16:29:36.386Z,1.30
2022-07-26T16:32:03.103Z,1.40
2022-07-26T16:34:30.232Z,1.20
2022-07-26T16:36:56.712Z,1.67
2022-07-26T16:39:23.218Z,1.30
2022-07-26T16:41:49.759Z,1.53
2022-07-26T16:44:16.239Z,1.33
2022-07-26T16:46:43.024Z,1.63
2022-07-26T16:49:11.715Z,1.50
2022-07-26T16:51:38.411Z,1.60
2022-07-26T16:54:05.029Z,1.40
2022-07-26T16:56:31.614Z,1.40
2022-07-26T16:58:58.222Z,1.70
2022-07-26T17:01:24.803Z,1.40
2022-07-26T17:03:51.374Z,1.40
2022-07-26T17:06:17.921Z,1.30
2022-07-26T17:08:44.554Z,1.37
2022-07-26T17:11:11.037Z,1.53
2022-07-26T17:13:37.606Z,1.30
2022-07-26T17:16:04.261Z,1.10
2022-07-26T17:18:30.857Z,1.27
2022-07-26T17:20:58.161Z,1.30
2022-07-26T17:23:24.919Z,1.47
2022-07-26T17:25:51.430Z,1.10
2022-07-26T17:28:17.940Z,1.40
2022-07-26T17:30:44.422Z,1.27
2022-07-26T17:33:10.969Z,1.37
2022-07-26T17:35:37.623Z,1.17
2022-07-26T17:38:04.384Z,1.20
2022-07-26T17:40:31.677Z,1.20
2022-07-26T17:42:58.878Z,1.10
2022-07-26T17:45:25.403Z,1.03
2022-07-26T17:47:51.883Z,1.33
2022-07-26T17:50:35.853Z,1.20
2022-07-26T17:53:04.112Z,1.40
2022-07-26T17:55:30.593Z,1.07
2022-07-26T17:57:57.125Z,1.20
2022-07-26T18:00:26.959Z,1.10
2022-07-26T18:02:56.076Z,1.10
2022-07-26T18:05:22.688Z,1.03
2022-07-26T18:07:49.471Z,1.00
2022-07-26T18:10:16.068Z,0.97
2022-07-26T18:12:42.635Z,1.10
2022-07-26T18:15:09.482Z,1.10
2022-07-26T18:17:36.303Z,0.90
2022-07-26T18:20:03.122Z,1.13
2022-07-26T18:22:29.613Z,0.97
2022-07-26T18:24:56.190Z,1.03
2022-07-26T18:27:23.481Z,0.97
2022-07-26T18:29:50.204Z,1.27
2022-07-26T18:32:16.950Z,1.13
2022-07-26T18:34:51.804Z,1.00
2022-07-26T18:37:19.505Z,1.10
2022-07-26T18:39:45.994Z,1.00
2022-07-26T18:42:12.541Z,1.10
2022-07-26T18:44:39.068Z,0.83
2022-07-26T18:47:05.919Z,0.87
2022-07-26T18:49:32.776Z,0.90
2022-07-26T18:52:08.424Z,0.93
2022-07-26T18:54:35.930Z,1.10
2022-07-26T18:57:02.500Z,0.90
2022-07-26T18:59:29.784Z,1.10
2022-07-26T19:01:57.791Z,1.20
2022-07-26T19:04:24.870Z,1.00
2022-07-26T19:06:51.529Z,1.10
2022-07-26T19:09:18.463Z,1.30
2022-07-26T19:11:47.805Z,1.10
2022-07-26T19:14:14.334Z,1.50
2022-07-26T19:16:40.949Z,1.20
2022-07-26T19:19:07.496Z,1.10
2022-07-26T19:21:33.994Z,1.20
2022-07-26T19:24:00.531Z,1.20
2022-07-26T19:26:27.657Z,1.40
2022-07-26T19:28:54.309Z,1.30
2022-07-26T19:31:21.174Z,1.33
2022-07-26T19:33:47.790Z,1.43
2022-07-26T19:36:18.113Z,1.27
2022-07-26T19:38:52.267Z,1.40
2022-07-26T19:41:19.982Z,1.50
2022-07-26T19:43:46.620Z,1.30
2022-07-26T19:46:13.230Z,1.10
2022-07-26T19:48:40.029Z,1.17
2022-07-26T19:51:06.583Z,1.10
2022-07-26T19:53:33.040Z,1.10
2022-07-26T19:55:59.585Z,1.13
2022-07-26T19:58:26.222Z,1.30
2022-07-26T20:00:53.677Z,1.23
2022-07-26T20:03:20.229Z,1.40
2022-07-26T20:05:46.846Z,1.07
2022-07-26T20:08:13.495Z,1.30
2022-07-26T20:10:40.020Z,1.20
2022-07-26T20:13:06.563Z,1.30
2022-07-26T20:15:33.262Z,1.10
2022-07-26T20:17:59.788Z,1.20
2022-07-26T20:20:26.299Z,1.20
2022-07-26T20:22:52.869Z,1.30
2022-07-26T20:25:21.623Z,1.10
2022-07-26T20:27:51.358Z,1.40
2022-07-26T20:30:18.282Z,1.10
2022-07-26T20:32:44.737Z,1.07
2022-07-26T20:35:11.456Z,1.10
2022-07-26T20:37:37.955Z,1.17
2022-07-26T20:40:04.740Z,1.10
2022-07-26T20:42:33.622Z,1.60
2022-07-26T20:45:01.048Z,1.30
2022-07-26T20:47:27.545Z,1.60
2022-07-26T20:49:54.105Z,1.40
2022-07-26T20:52:25.731Z,1.13
2022-07-26T20:54:52.261Z,1.40
2022-07-26T20:57:18.803Z,1.20
2022-07-26T20:59:45.316Z,1.10
2022-07-26T21:02:11.874Z,1.10
2022-07-26T21:04:38.455Z,1.20
2022-07-26T21:07:05.001Z,1.40
2022-07-26T21:09:31.691Z,1.00
2022-07-26T21:11:58.228Z,0.90
2022-07-26T21:14:24.766Z,1.30
2022-07-26T21:16:51.314Z,1.10
2022-07-26T21:19:17.808Z,1.00
2022-07-26T21:21:44.464Z,1.30
2022-07-26T21:24:10.983Z,1.03
2022-07-26T21:26:37.894Z,1.10
2022-07-26T21:29:04.564Z,1.17
2022-07-26T21:31:31.131Z,1.30
2022-07-26T21:33:57.720Z,1.17
2022-07-26T21:36:24.304Z,1.20
2022-07-26T21:38:50.931Z,1.10
2022-07-26T21:41:17.480Z,1.20
2022-07-26T21:43:43.985Z,0.90
2022-07-26T21:46:12.756Z,1.07
2022-07-26T21:48:39.877Z,1.10
2022-07-26T21:51:06.474Z,1.20
2022-07-26T21:53:33.090Z,1.10
2022-07-26T21:55:59.577Z,1.00
2022-07-26T21:58:28.010Z,1.30
2022-07-26T22:01:03.318Z,1.20
2022-07-26T22:03:34.531Z,1.10
2022-07-26T22:06:01.083Z,1.20
2022-07-26T22:08:27.583Z,1.20
2022-07-26T22:10:54.219Z,1.20
2022-07-26T22:13:20.921Z,1.17
2022-07-26T22:15:47.456Z,1.10
2022-07-26T22:18:14.116Z,1.20
2022-07-26T22:20:40.922Z,1.00
2022-07-26T22:23:08.501Z,1.47
2022-07-26T22:25:35.803Z,1.20
2022-07-26T22:28:02.873Z,1.23
2022-07-26T22:30:29.521Z,1.10
2022-07-26T22:32:56.768Z,1.20
2022-07-26T22:35:23.847Z,1.30
2022-07-26T22:37:50.660Z,1.20
2022-07-26T22:40:17.220Z,1.30
2022-07-26T22:42:44.667Z,1.30
2022-07-26T22:45:11.825Z,1.30
2022-07-26T22:47:38.303Z,1.20
2022-07-26T22:50:13.503Z,1.20
2022-07-26T22:52:41.826Z,1.40
2022-07-26T22:55:08.842Z,1.30
2022-07-26T22:57:35.305Z,1.27
2022-07-26T23:00:01.814Z,1.23
2022-07-26T23:02:28.311Z,1.00
2022-07-26T23:04:54.810Z,1.20
2022-07-26T23:07:21.293Z,1.30
2022-07-26T23:09:48.113Z,1.33
2022-07-26T23:12:14.638Z,1.10
2022-07-26T23:14:42.144Z,1.30
2022-07-26T23:17:08.691Z,1.30
2022-07-26T23:19:35.197Z,1.20
2022-07-26T23:22:01.736Z,1.30
2022-07-26T23:24:28.272Z,1.20
2022-07-26T23:26:54.822Z,1.23
2022-07-26T23:29:21.345Z,1.30
2022-07-26T23:31:47.940Z,1.37
2022-07-26T23:34:14.600Z,1.20
2022-07-26T23:36:41.099Z,1.27
2022-07-26T23:39:07.671Z,1.20
2022-07-26T23:41:35.102Z,1.07
2022-07-26T23:44:01.642Z,1.20
2022-07-26T23:46:28.219Z,1.30
2022-07-26T23:48:54.932Z,0.93
2022-07-26T23:51:22.986Z,1.23
2022-07-26T23:53:49.580Z,1.20
2022-07-26T23:56:16.506Z,1.07
2022-07-26T23:58:43.016Z,1.00
